sensor_id;sensor_type;location;lat;lon;timestamp;temperature;humidity
16392;DHT22;8305;-33.882;151.134;2023-01-25T00:01:07;25.00;99.90
16392;DHT22;8305;-33.882;151.134;2023-01-25T00:03:40;25.00;99.90
16392;DHT22;8305;-33.882;151.134;2023-01-25T00:06:11;25.00;99.90
16392;DHT22;8305;-33.882;151.134;2023-01-25T00:08:42;25.10;99.90
16392;DHT22;8305;-33.882;151.134;2023-01-25T00:11:14;25.10;99.90
16392;DHT22;8305;-33.882;151.134;2023-01-25T00:13:46;25.20;99.90
16392;DHT22;8305;-33.882;151.134;2023-01-25T00:16:17;25.20;99.90
16392;DHT22;8305;-33.882;151.134;2023-01-25T00:18:50;25.30;99.90
16392;DHT22;8305;-33.882;151.134;2023-01-25T00:21:22;25.30;99.90
16392;DHT22;8305;-33.882;151.134;2023-01-25T00:23:54;25.60;99.90
16392;DHT22;8305;-33.882;151.134;2023-01-25T00:26:25;25.90;99.90
16392;DHT22;8305;-33.882;151.134;2023-01-25T00:28:56;25.80;99.90
16392;DHT22;8305;-33.882;151.134;2023-01-25T00:31:36;25.80;99.90
16392;DHT22;8305;-33.882;151.134;2023-01-25T00:34:38;25.80;99.90
16392;DHT22;8305;-33.882;151.134;2023-01-25T00:37:18;25.80;99.90
16392;DHT22;8305;-33.882;151.134;2023-01-25T00:39:50;25.80;99.90
16392;DHT22;8305;-33.882;151.134;2023-01-25T00:42:21;25.80;99.90
16392;DHT22;8305;-33.882;151.134;2023-01-25T00:44:52;25.80;99.90
16392;DHT22;8305;-33.882;151.134;2023-01-25T00:47:23;25.70;99.90
16392;DHT22;8305;-33.882;151.134;2023-01-25T00:49:57;25.60;99.90
16392;DHT22;8305;-33.882;151.134;2023-01-25T00:52:28;25.60;99.90
16392;DHT22;8305;-33.882;151.134;2023-01-25T00:54:59;25.90;99.90
16392;DHT22;8305;-33.882;151.134;2023-01-25T00:57:30;26.40;99.90
16392;DHT22;8305;-33.882;151.134;2023-01-25T01:00:00;26.80;99.90
16392;DHT22;8305;-33.882;151.134;2023-01-25T01:02:34;26.80;99.90
16392;DHT22;8305;-33.882;151.134;2023-01-25T01:05:08;26.60;99.90
16392;DHT22;8305;-33.882;151.134;2023-01-25T01:07:39;26.50;99.90
16392;DHT22;8305;-33.882;151.134;2023-01-25T01:10:10;26.50;99.90
16392;DHT22;8305;-33.882;151.134;2023-01-25T01:12:43;26.70;99.90
16392;DHT22;8305;-33.882;151.134;2023-01-25T01:15:14;26.60;99.90
16392;DHT22;8305;-33.882;151.134;2023-01-25T01:17:45;26.70;99.90
16392;DHT22;8305;-33.882;151.134;2023-01-25T01:20:19;27.00;99.90
16392;DHT22;8305;-33.882;151.134;2023-01-25T01:22:52;27.20;99.90
16392;DHT22;8305;-33.882;151.134;2023-01-25T01:25:23;27.20;99.90
16392;DHT22;8305;-33.882;151.134;2023-01-25T01:27:54;27.50;99.90
16392;DHT22;8305;-33.882;151.134;2023-01-25T01:30:25;27.50;99.90
16392;DHT22;8305;-33.882;151.134;2023-01-25T01:32:56;27.30;99.90
16392;DHT22;8305;-33.882;151.134;2023-01-25T01:35:29;27.30;99.90
16392;DHT22;8305;-33.882;151.134;2023-01-25T01:38:00;27.20;99.90
16392;DHT22;8305;-33.882;151.134;2023-01-25T01:40:31;27.00;99.90
16392;DHT22;8305;-33.882;151.134;2023-01-25T01:43:04;26.90;99.90
16392;DHT22;8305;-33.882;151.134;2023-01-25T01:45:53;26.80;99.90
16392;DHT22;8305;-33.882;151.134;2023-01-25T01:48:33;26.80;99.90
16392;DHT22;8305;-33.882;151.134;2023-01-25T01:51:13;27.00;99.90
16392;DHT22;8305;-33.882;151.134;2023-01-25T01:53:47;27.40;99.90
16392;DHT22;8305;-33.882;151.134;2023-01-25T01:56:22;27.30;99.90
16392;DHT22;8305;-33.882;151.134;2023-01-25T01:58:57;27.10;99.90
16392;DHT22;8305;-33.882;151.134;2023-01-25T02:01:29;27.10;99.90
16392;DHT22;8305;-33.882;151.134;2023-01-25T02:04:00;27.10;99.90
16392;DHT22;8305;-33.882;151.134;2023-01-25T02:06:40;27.40;99.90
16392;DHT22;8305;-33.882;151.134;2023-01-25T02:09:15;27.70;99.90
16392;DHT22;8305;-33.882;151.134;2023-01-25T02:11:48;27.80;99.90
16392;DHT22;8305;-33.882;151.134;2023-01-25T02:14:21;27.60;99.90
16392;DHT22;8305;-33.882;151.134;2023-01-25T02:16:52;27.40;99.90
16392;DHT22;8305;-33.882;151.134;2023-01-25T02:19:36;27.20;99.90
16392;DHT22;8305;-33.882;151.134;2023-01-25T02:22:12;26.90;99.90
16392;DHT22;8305;-33.882;151.134;2023-01-25T02:24:49;26.90;99.90
16392;DHT22;8305;-33.882;151.134;2023-01-25T02:27:25;27.20;99.90
16392;DHT22;8305;-33.882;151.134;2023-01-25T02:29:57;27.30;99.90
16392;DHT22;8305;-33.882;151.134;2023-01-25T02:32:28;27.20;99.90
16392;DHT22;8305;-33.882;151.134;2023-01-25T02:34:59;27.00;99.90
16392;DHT22;8305;-33.882;151.134;2023-01-25T02:37:30;27.00;99.90
16392;DHT22;8305;-33.882;151.134;2023-01-25T02:40:04;27.10;99.90
16392;DHT22;8305;-33.882;151.134;2023-01-25T02:42:38;27.40;99.90
16392;DHT22;8305;-33.882;151.134;2023-01-25T02:45:14;27.80;99.90
16392;DHT22;8305;-33.882;151.134;2023-01-25T02:47:48;28.00;99.90
16392;DHT22;8305;-33.882;151.134;2023-01-25T02:50:19;28.20;99.90
16392;DHT22;8305;-33.882;151.134;2023-01-25T02:52:50;28.20;99.90
16392;DHT22;8305;-33.882;151.134;2023-01-25T02:55:20;28.30;99.90
16392;DHT22;8305;-33.882;151.134;2023-01-25T02:57:54;28.40;99.90
16392;DHT22;8305;-33.882;151.134;2023-01-25T03:00:25;28.60;99.90
16392;DHT22;8305;-33.882;151.134;2023-01-25T03:02:56;28.80;99.90
16392;DHT22;8305;-33.882;151.134;2023-01-25T03:05:28;28.70;99.90
16392;DHT22;8305;-33.882;151.134;2023-01-25T03:07:59;28.80;99.90
16392;DHT22;8305;-33.882;151.134;2023-01-25T03:10:30;28.70;99.90
16392;DHT22;8305;-33.882;151.134;2023-01-25T03:13:02;28.60;99.90
16392;DHT22;8305;-33.882;151.134;2023-01-25T03:15:33;28.60;99.90
16392;DHT22;8305;-33.882;151.134;2023-01-25T03:18:04;28.60;99.90
16392;DHT22;8305;-33.882;151.134;2023-01-25T03:20:35;28.60;99.90
16392;DHT22;8305;-33.882;151.134;2023-01-25T03:23:09;28.60;99.90
16392;DHT22;8305;-33.882;151.134;2023-01-25T03:25:40;28.70;99.90
16392;DHT22;8305;-33.882;151.134;2023-01-25T03:28:15;28.40;99.90
16392;DHT22;8305;-33.882;151.134;2023-01-25T03:30:46;28.30;99.90
16392;DHT22;8305;-33.882;151.134;2023-01-25T03:33:21;28.20;99.90
16392;DHT22;8305;-33.882;151.134;2023-01-25T03:35:53;28.00;99.90
16392;DHT22;8305;-33.882;151.134;2023-01-25T03:38:24;28.00;99.90
16392;DHT22;8305;-33.882;151.134;2023-01-25T03:40:55;28.00;99.90
16392;DHT22;8305;-33.882;151.134;2023-01-25T03:43:28;28.10;99.90
16392;DHT22;8305;-33.882;151.134;2023-01-25T03:46:00;28.10;99.90
16392;DHT22;8305;-33.882;151.134;2023-01-25T03:48:34;28.10;99.90
16392;DHT22;8305;-33.882;151.134;2023-01-25T03:51:05;28.00;99.90
16392;DHT22;8305;-33.882;151.134;2023-01-25T03:53:39;27.90;99.90
16392;DHT22;8305;-33.882;151.134;2023-01-25T03:56:13;28.00;99.90
16392;DHT22;8305;-33.882;151.134;2023-01-25T03:58:49;28.00;99.90
16392;DHT22;8305;-33.882;151.134;2023-01-25T04:01:19;27.90;99.90
16392;DHT22;8305;-33.882;151.134;2023-01-25T04:03:50;27.90;99.90
16392;DHT22;8305;-33.882;151.134;2023-01-25T04:06:22;27.90;99.90
16392;DHT22;8305;-33.882;151.134;2023-01-25T04:08:54;27.90;99.90
16392;DHT22;8305;-33.882;151.134;2023-01-25T04:11:25;27.80;99.90
16392;DHT22;8305;-33.882;151.134;2023-01-25T04:13:58;27.70;99.90
16392;DHT22;8305;-33.882;151.134;2023-01-25T04:16:30;27.60;99.90
16392;DHT22;8305;-33.882;151.134;2023-01-25T04:19:02;27.60;99.90
16392;DHT22;8305;-33.882;151.134;2023-01-25T04:21:33;27.60;99.90
16392;DHT22;8305;-33.882;151.134;2023-01-25T04:24:05;27.60;99.90
16392;DHT22;8305;-33.882;151.134;2023-01-25T04:26:36;27.40;99.90
16392;DHT22;8305;-33.882;151.134;2023-01-25T04:29:10;27.50;99.90
16392;DHT22;8305;-33.882;151.134;2023-01-25T04:31:41;27.40;99.90
16392;DHT22;8305;-33.882;151.134;2023-01-25T04:34:12;27.50;99.90
16392;DHT22;8305;-33.882;151.134;2023-01-25T04:36:43;27.60;99.90
16392;DHT22;8305;-33.882;151.134;2023-01-25T04:39:17;27.60;99.90
16392;DHT22;8305;-33.882;151.134;2023-01-25T04:41:48;27.50;99.90
16392;DHT22;8305;-33.882;151.134;2023-01-25T04:44:21;27.50;99.90
16392;DHT22;8305;-33.882;151.134;2023-01-25T04:46:52;27.50;99.90
16392;DHT22;8305;-33.882;151.134;2023-01-25T04:49:23;27.40;99.90
16392;DHT22;8305;-33.882;151.134;2023-01-25T04:51:54;27.30;99.90
16392;DHT22;8305;-33.882;151.134;2023-01-25T04:54:25;27.20;99.90
16392;DHT22;8305;-33.882;151.134;2023-01-25T04:56:59;27.10;99.90
16392;DHT22;8305;-33.882;151.134;2023-01-25T04:59:32;27.10;99.90
16392;DHT22;8305;-33.882;151.134;2023-01-25T05:02:03;27.20;99.90
16392;DHT22;8305;-33.882;151.134;2023-01-25T05:04:34;27.10;99.90
16392;DHT22;8305;-33.882;151.134;2023-01-25T05:07:05;27.10;99.90
16392;DHT22;8305;-33.882;151.134;2023-01-25T05:09:36;27.00;99.90
16392;DHT22;8305;-33.882;151.134;2023-01-25T05:12:07;26.90;99.90
16392;DHT22;8305;-33.882;151.134;2023-01-25T05:14:43;26.90;99.90
16392;DHT22;8305;-33.882;151.134;2023-01-25T05:17:15;26.90;99.90
16392;DHT22;8305;-33.882;151.134;2023-01-25T05:19:46;27.00;99.90
16392;DHT22;8305;-33.882;151.134;2023-01-25T05:22:18;27.00;99.90
16392;DHT22;8305;-33.882;151.134;2023-01-25T05:24:49;27.00;99.90
16392;DHT22;8305;-33.882;151.134;2023-01-25T05:27:21;27.00;99.90
16392;DHT22;8305;-33.882;151.134;2023-01-25T05:29:52;27.00;99.90
16392;DHT22;8305;-33.882;151.134;2023-01-25T05:32:24;27.00;99.90
16392;DHT22;8305;-33.882;151.134;2023-01-25T05:34:55;27.00;99.90
16392;DHT22;8305;-33.882;151.134;2023-01-25T05:37:26;27.00;99.90
16392;DHT22;8305;-33.882;151.134;2023-01-25T05:39:57;27.10;99.90
16392;DHT22;8305;-33.882;151.134;2023-01-25T05:42:31;27.10;99.90
16392;DHT22;8305;-33.882;151.134;2023-01-25T05:45:05;27.10;99.90
16392;DHT22;8305;-33.882;151.134;2023-01-25T05:47:36;27.00;99.90
16392;DHT22;8305;-33.882;151.134;2023-01-25T05:50:07;27.00;99.90
16392;DHT22;8305;-33.882;151.134;2023-01-25T05:52:39;26.90;99.90
16392;DHT22;8305;-33.882;151.134;2023-01-25T05:55:10;26.90;99.90
16392;DHT22;8305;-33.882;151.134;2023-01-25T05:57:41;26.90;99.90
16392;DHT22;8305;-33.882;151.134;2023-01-25T06:00:14;26.90;99.90
16392;DHT22;8305;-33.882;151.134;2023-01-25T06:02:45;26.90;99.90
16392;DHT22;8305;-33.882;151.134;2023-01-25T06:05:17;26.90;99.90
16392;DHT22;8305;-33.882;151.134;2023-01-25T06:07:49;26.80;99.90
16392;DHT22;8305;-33.882;151.134;2023-01-25T06:10:19;26.80;99.90
16392;DHT22;8305;-33.882;151.134;2023-01-25T06:12:51;26.80;99.90
16392;DHT22;8305;-33.882;151.134;2023-01-25T06:15:28;26.90;99.90
16392;DHT22;8305;-33.882;151.134;2023-01-25T06:17:59;26.80;99.90
16392;DHT22;8305;-33.882;151.134;2023-01-25T06:20:30;26.80;99.90
16392;DHT22;8305;-33.882;151.134;2023-01-25T06:23:01;26.90;99.90
16392;DHT22;8305;-33.882;151.134;2023-01-25T06:25:32;26.90;99.90
16392;DHT22;8305;-33.882;151.134;2023-01-25T06:28:03;26.90;99.90
16392;DHT22;8305;-33.882;151.134;2023-01-25T06:30:36;26.90;99.90
16392;DHT22;8305;-33.882;151.134;2023-01-25T06:33:07;26.80;99.90
16392;DHT22;8305;-33.882;151.134;2023-01-25T06:35:38;26.80;99.90
16392;DHT22;8305;-33.882;151.134;2023-01-25T06:38:10;26.70;99.90
16392;DHT22;8305;-33.882;151.134;2023-01-25T06:40:41;26.70;99.90
16392;DHT22;8305;-33.882;151.134;2023-01-25T06:43:12;26.70;99.90
16392;DHT22;8305;-33.882;151.134;2023-01-25T06:45:45;26.60;99.90
16392;DHT22;8305;-33.882;151.134;2023-01-25T06:48:16;26.60;99.90
16392;DHT22;8305;-33.882;151.134;2023-01-25T06:50:54;26.70;99.90
16392;DHT22;8305;-33.882;151.134;2023-01-25T06:53:26;26.70;99.90
16392;DHT22;8305;-33.882;151.134;2023-01-25T06:56:02;26.70;99.90
16392;DHT22;8305;-33.882;151.134;2023-01-25T06:58:35;26.60;99.90
16392;DHT22;8305;-33.882;151.134;2023-01-25T07:01:13;26.50;99.90
16392;DHT22;8305;-33.882;151.134;2023-01-25T07:03:49;26.60;99.90
16392;DHT22;8305;-33.882;151.134;2023-01-25T07:06:20;26.50;99.90
16392;DHT22;8305;-33.882;151.134;2023-01-25T07:08:51;26.40;99.90
16392;DHT22;8305;-33.882;151.134;2023-01-25T07:11:22;26.40;99.90
16392;DHT22;8305;-33.882;151.134;2023-01-25T07:13:53;26.30;99.90
16392;DHT22;8305;-33.882;151.134;2023-01-25T07:16:26;26.30;99.90
16392;DHT22;8305;-33.882;151.134;2023-01-25T07:19:03;26.20;99.90
16392;DHT22;8305;-33.882;151.134;2023-01-25T07:21:34;26.30;99.90
16392;DHT22;8305;-33.882;151.134;2023-01-25T07:24:05;26.30;99.90
16392;DHT22;8305;-33.882;151.134;2023-01-25T07:26:36;26.30;99.90
16392;DHT22;8305;-33.882;151.134;2023-01-25T07:29:07;26.20;99.90
16392;DHT22;8305;-33.882;151.134;2023-01-25T07:31:43;26.20;99.90
16392;DHT22;8305;-33.882;151.134;2023-01-25T07:34:14;26.10;99.90
16392;DHT22;8305;-33.882;151.134;2023-01-25T07:36:45;26.00;99.90
16392;DHT22;8305;-33.882;151.134;2023-01-25T07:39:16;26.00;99.90
16392;DHT22;8305;-33.882;151.134;2023-01-25T07:41:47;26.00;99.90
16392;DHT22;8305;-33.882;151.134;2023-01-25T07:44:18;25.90;99.90
16392;DHT22;8305;-33.882;151.134;2023-01-25T07:46:52;25.80;99.90
16392;DHT22;8305;-33.882;151.134;2023-01-25T07:49:23;25.70;99.90
16392;DHT22;8305;-33.882;151.134;2023-01-25T07:51:54;25.70;99.90
16392;DHT22;8305;-33.882;151.134;2023-01-25T07:54:25;25.60;99.90
16392;DHT22;8305;-33.882;151.134;2023-01-25T07:56:56;25.50;99.90
16392;DHT22;8305;-33.882;151.134;2023-01-25T07:59:27;25.50;99.90
16392;DHT22;8305;-33.882;151.134;2023-01-25T08:02:00;25.30;99.90
16392;DHT22;8305;-33.882;151.134;2023-01-25T08:04:31;25.30;99.90
16392;DHT22;8305;-33.882;151.134;2023-01-25T08:07:02;25.30;99.90
16392;DHT22;8305;-33.882;151.134;2023-01-25T08:09:33;25.20;99.90
16392;DHT22;8305;-33.882;151.134;2023-01-25T08:12:05;25.20;99.90
16392;DHT22;8305;-33.882;151.134;2023-01-25T08:14:36;25.10;99.90
16392;DHT22;8305;-33.882;151.134;2023-01-25T08:17:09;25.10;99.90
16392;DHT22;8305;-33.882;151.134;2023-01-25T08:19:40;25.00;99.90
16392;DHT22;8305;-33.882;151.134;2023-01-25T08:22:11;25.00;99.90
16392;DHT22;8305;-33.882;151.134;2023-01-25T08:24:42;25.00;99.90
16392;DHT22;8305;-33.882;151.134;2023-01-25T08:27:13;24.90;99.90
16392;DHT22;8305;-33.882;151.134;2023-01-25T08:29:46;24.90;99.90
16392;DHT22;8305;-33.882;151.134;2023-01-25T08:32:19;24.90;99.90
16392;DHT22;8305;-33.882;151.134;2023-01-25T08:34:50;24.90;99.90
16392;DHT22;8305;-33.882;151.134;2023-01-25T08:37:21;24.90;99.90
16392;DHT22;8305;-33.882;151.134;2023-01-25T08:39:56;24.80;99.90
16392;DHT22;8305;-33.882;151.134;2023-01-25T08:42:27;24.80;99.90
16392;DHT22;8305;-33.882;151.134;2023-01-25T08:44:58;24.70;99.90
16392;DHT22;8305;-33.882;151.134;2023-01-25T08:47:31;24.70;99.90
16392;DHT22;8305;-33.882;151.134;2023-01-25T08:50:02;24.60;99.90
16392;DHT22;8305;-33.882;151.134;2023-01-25T08:52:34;24.60;99.90
16392;DHT22;8305;-33.882;151.134;2023-01-25T08:55:05;24.50;99.90
16392;DHT22;8305;-33.882;151.134;2023-01-25T08:57:36;24.50;99.90
16392;DHT22;8305;-33.882;151.134;2023-01-25T09:00:08;24.50;99.90
16392;DHT22;8305;-33.882;151.134;2023-01-25T09:02:41;24.40;99.90
16392;DHT22;8305;-33.882;151.134;2023-01-25T09:05:12;24.40;99.90
16392;DHT22;8305;-33.882;151.134;2023-01-25T09:07:44;24.30;99.90
16392;DHT22;8305;-33.882;151.134;2023-01-25T09:10:15;24.30;99.90
16392;DHT22;8305;-33.882;151.134;2023-01-25T09:12:46;24.30;99.90
16392;DHT22;8305;-33.882;151.134;2023-01-25T09:15:17;24.20;99.90
16392;DHT22;8305;-33.882;151.134;2023-01-25T09:17:53;24.20;99.90
16392;DHT22;8305;-33.882;151.134;2023-01-25T09:20:25;24.20;99.90
16392;DHT22;8305;-33.882;151.134;2023-01-25T09:22:56;24.10;99.90
16392;DHT22;8305;-33.882;151.134;2023-01-25T09:25:27;24.10;99.90
16392;DHT22;8305;-33.882;151.134;2023-01-25T09:27:58;24.10;99.90
16392;DHT22;8305;-33.882;151.134;2023-01-25T09:30:29;24.10;99.90
16392;DHT22;8305;-33.882;151.134;2023-01-25T09:33:02;24.10;99.90
16392;DHT22;8305;-33.882;151.134;2023-01-25T09:35:33;24.00;99.90
16392;DHT22;8305;-33.882;151.134;2023-01-25T09:38:04;24.00;99.90
16392;DHT22;8305;-33.882;151.134;2023-01-25T09:40:39;24.00;99.90
16392;DHT22;8305;-33.882;151.134;2023-01-25T09:43:24;24.00;99.90
16392;DHT22;8305;-33.882;151.134;2023-01-25T09:46:01;24.00;99.90
16392;DHT22;8305;-33.882;151.134;2023-01-25T09:48:45;23.90;99.90
16392;DHT22;8305;-33.882;151.134;2023-01-25T09:51:25;23.90;99.90
16392;DHT22;8305;-33.882;151.134;2023-01-25T09:53:59;23.90;99.90
16392;DHT22;8305;-33.882;151.134;2023-01-25T09:56:33;23.90;99.90
16392;DHT22;8305;-33.882;151.134;2023-01-25T09:59:11;23.90;99.90
16392;DHT22;8305;-33.882;151.134;2023-01-25T10:01:46;23.80;99.90
16392;DHT22;8305;-33.882;151.134;2023-01-25T10:04:22;23.80;99.90
16392;DHT22;8305;-33.882;151.134;2023-01-25T10:06:57;23.80;99.90
16392;DHT22;8305;-33.882;151.134;2023-01-25T10:09:38;23.80;99.90
16392;DHT22;8305;-33.882;151.134;2023-01-25T10:12:17;23.80;99.90
16392;DHT22;8305;-33.882;151.134;2023-01-25T10:14:49;23.80;99.90
16392;DHT22;8305;-33.882;151.134;2023-01-25T10:17:26;23.80;99.90
16392;DHT22;8305;-33.882;151.134;2023-01-25T10:20:12;23.70;99.90
16392;DHT22;8305;-33.882;151.134;2023-01-25T10:22:48;23.70;99.90
16392;DHT22;8305;-33.882;151.134;2023-01-25T10:25:27;23.70;99.90
16392;DHT22;8305;-33.882;151.134;2023-01-25T10:28:12;23.70;99.90
16392;DHT22;8305;-33.882;151.134;2023-01-25T10:30:51;23.70;99.90
16392;DHT22;8305;-33.882;151.134;2023-01-25T10:33:23;23.70;99.90
16392;DHT22;8305;-33.882;151.134;2023-01-25T10:35:57;23.70;99.90
16392;DHT22;8305;-33.882;151.134;2023-01-25T10:38:34;23.70;99.90
16392;DHT22;8305;-33.882;151.134;2023-01-25T10:41:09;23.70;99.90
16392;DHT22;8305;-33.882;151.134;2023-01-25T10:43:41;23.70;99.90
16392;DHT22;8305;-33.882;151.134;2023-01-25T10:46:21;23.70;99.90
16392;DHT22;8305;-33.882;151.134;2023-01-25T10:48:53;23.70;99.90
16392;DHT22;8305;-33.882;151.134;2023-01-25T10:51:33;23.70;99.90
16392;DHT22;8305;-33.882;151.134;2023-01-25T10:54:05;23.70;99.90
16392;DHT22;8305;-33.882;151.134;2023-01-25T10:56:39;23.70;99.90
16392;DHT22;8305;-33.882;151.134;2023-01-25T10:59:19;23.70;99.90
16392;DHT22;8305;-33.882;151.134;2023-01-25T11:01:51;23.70;99.90
16392;DHT22;8305;-33.882;151.134;2023-01-25T11:04:28;23.70;99.90
16392;DHT22;8305;-33.882;151.134;2023-01-25T11:07:02;23.70;99.90
16392;DHT22;8305;-33.882;151.134;2023-01-25T11:09:35;23.70;99.90
16392;DHT22;8305;-33.882;151.134;2023-01-25T11:12:16;23.60;99.90
16392;DHT22;8305;-33.882;151.134;2023-01-25T11:14:48;23.60;99.90
16392;DHT22;8305;-33.882;151.134;2023-01-25T11:17:27;23.60;99.90
16392;DHT22;8305;-33.882;151.134;2023-01-25T11:20:14;23.60;99.90
16392;DHT22;8305;-33.882;151.134;2023-01-25T11:22:57;23.60;99.90
16392;DHT22;8305;-33.882;151.134;2023-01-25T11:25:32;23.60;99.90
16392;DHT22;8305;-33.882;151.134;2023-01-25T11:28:17;23.60;99.90
16392;DHT22;8305;-33.882;151.134;2023-01-25T11:30:48;23.60;99.90
16392;DHT22;8305;-33.882;151.134;2023-01-25T11:33:21;23.60;99.90
16392;DHT22;8305;-33.882;151.134;2023-01-25T11:36:07;23.60;99.90
16392;DHT22;8305;-33.882;151.134;2023-01-25T11:38:48;23.50;99.90
16392;DHT22;8305;-33.882;151.134;2023-01-25T11:41:29;23.50;99.90
16392;DHT22;8305;-33.882;151.134;2023-01-25T11:44:20;23.50;99.90
16392;DHT22;8305;-33.882;151.134;2023-01-25T11:47:01;23.50;99.90
16392;DHT22;8305;-33.882;151.134;2023-01-25T11:49:46;23.50;99.90
16392;DHT22;8305;-33.882;151.134;2023-01-25T11:52:27;23.50;99.90
16392;DHT22;8305;-33.882;151.134;2023-01-25T11:55:12;23.50;99.90
16392;DHT22;8305;-33.882;151.134;2023-01-25T11:57:57;23.50;99.90
16392;DHT22;8305;-33.882;151.134;2023-01-25T12:06:41;23.40;99.90
16392;DHT22;8305;-33.882;151.134;2023-01-25T12:09:29;23.40;99.90
16392;DHT22;8305;-33.882;151.134;2023-01-25T12:12:17;23.40;99.90
16392;DHT22;8305;-33.882;151.134;2023-01-25T12:15:02;23.40;99.90
16392;DHT22;8305;-33.882;151.134;2023-01-25T12:17:48;23.40;99.90
16392;DHT22;8305;-33.882;151.134;2023-01-25T12:20:32;23.30;99.90
16392;DHT22;8305;-33.882;151.134;2023-01-25T12:23:28;23.30;99.90
16392;DHT22;8305;-33.882;151.134;2023-01-25T12:26:19;23.30;99.90
16392;DHT22;8305;-33.882;151.134;2023-01-25T12:29:02;23.20;99.90
16392;DHT22;8305;-33.882;151.134;2023-01-25T12:31:40;23.20;99.90
16392;DHT22;8305;-33.882;151.134;2023-01-25T12:34:17;23.20;99.90
16392;DHT22;8305;-33.882;151.134;2023-01-25T12:36:50;23.20;99.90
16392;DHT22;8305;-33.882;151.134;2023-01-25T12:39:22;23.20;99.90
16392;DHT22;8305;-33.882;151.134;2023-01-25T12:41:59;23.20;99.90
16392;DHT22;8305;-33.882;151.134;2023-01-25T12:44:36;23.20;99.90
16392;DHT22;8305;-33.882;151.134;2023-01-25T12:47:12;23.10;99.90
16392;DHT22;8305;-33.882;151.134;2023-01-25T12:49:47;23.10;99.90
16392;DHT22;8305;-33.882;151.134;2023-01-25T12:52:22;23.10;99.90
16392;DHT22;8305;-33.882;151.134;2023-01-25T12:54:59;23.10;99.90
16392;DHT22;8305;-33.882;151.134;2023-01-25T12:57:38;23.00;99.90
16392;DHT22;8305;-33.882;151.134;2023-01-25T13:00:20;23.00;99.90
16392;DHT22;8305;-33.882;151.134;2023-01-25T13:03:13;23.00;99.90
16392;DHT22;8305;-33.882;151.134;2023-01-25T13:05:49;23.10;99.90
16392;DHT22;8305;-33.882;151.134;2023-01-25T13:08:33;23.10;99.90
16392;DHT22;8305;-33.882;151.134;2023-01-25T13:11:11;23.00;99.90
16392;DHT22;8305;-33.882;151.134;2023-01-25T13:13:43;23.00;99.90
16392;DHT22;8305;-33.882;151.134;2023-01-25T13:16:40;23.00;99.90
16392;DHT22;8305;-33.882;151.134;2023-01-25T13:19:21;23.00;99.90
16392;DHT22;8305;-33.882;151.134;2023-01-25T13:22:09;23.00;99.90
16392;DHT22;8305;-33.882;151.134;2023-01-25T13:25:06;23.00;99.90
16392;DHT22;8305;-33.882;151.134;2023-01-25T13:27:38;23.00;99.90
16392;DHT22;8305;-33.882;151.134;2023-01-25T13:30:31;23.00;99.90
16392;DHT22;8305;-33.882;151.134;2023-01-25T13:33:05;23.00;99.90
16392;DHT22;8305;-33.882;151.134;2023-01-25T13:35:38;23.00;99.90
16392;DHT22;8305;-33.882;151.134;2023-01-25T13:38:31;22.90;99.90
16392;DHT22;8305;-33.882;151.134;2023-01-25T13:41:14;22.90;99.90
16392;DHT22;8305;-33.882;151.134;2023-01-25T13:43:53;22.90;99.90
16392;DHT22;8305;-33.882;151.134;2023-01-25T13:46:25;22.90;99.90
16392;DHT22;8305;-33.882;151.134;2023-01-25T13:49:02;22.80;99.90
16392;DHT22;8305;-33.882;151.134;2023-01-25T13:51:36;22.80;99.90
16392;DHT22;8305;-33.882;151.134;2023-01-25T13:54:15;22.80;99.90
16392;DHT22;8305;-33.882;151.134;2023-01-25T13:56:46;22.70;99.90
16392;DHT22;8305;-33.882;151.134;2023-01-25T13:59:26;22.70;99.90
16392;DHT22;8305;-33.882;151.134;2023-01-25T14:01:59;22.70;99.90
16392;DHT22;8305;-33.882;151.134;2023-01-25T14:04:32;22.60;99.90
16392;DHT22;8305;-33.882;151.134;2023-01-25T14:07:04;22.60;99.90
16392;DHT22;8305;-33.882;151.134;2023-01-25T14:09:39;22.60;99.90
16392;DHT22;8305;-33.882;151.134;2023-01-25T14:12:13;22.50;99.90
16392;DHT22;8305;-33.882;151.134;2023-01-25T14:14:50;22.50;99.90
16392;DHT22;8305;-33.882;151.134;2023-01-25T14:17:21;22.50;99.90
16392;DHT22;8305;-33.882;151.134;2023-01-25T14:19:56;22.50;99.90
16392;DHT22;8305;-33.882;151.134;2023-01-25T14:22:28;22.50;99.90
16392;DHT22;8305;-33.882;151.134;2023-01-25T14:25:09;22.40;99.90
16392;DHT22;8305;-33.882;151.134;2023-01-25T14:27:45;22.40;99.90
16392;DHT22;8305;-33.882;151.134;2023-01-25T14:30:21;22.40;99.90
16392;DHT22;8305;-33.882;151.134;2023-01-25T14:32:53;22.40;99.90
16392;DHT22;8305;-33.882;151.134;2023-01-25T14:35:37;22.30;99.90
16392;DHT22;8305;-33.882;151.134;2023-01-25T14:38:26;22.30;99.90
16392;DHT22;8305;-33.882;151.134;2023-01-25T14:41:01;22.30;99.90
16392;DHT22;8305;-33.882;151.134;2023-01-25T14:43:33;22.20;99.90
16392;DHT22;8305;-33.882;151.134;2023-01-25T14:46:19;22.20;99.90
16392;DHT22;8305;-33.882;151.134;2023-01-25T14:48:51;22.20;99.90
16392;DHT22;8305;-33.882;151.134;2023-01-25T14:51:32;22.20;99.90
16392;DHT22;8305;-33.882;151.134;2023-01-25T14:54:05;22.20;99.90
16392;DHT22;8305;-33.882;151.134;2023-01-25T14:56:41;22.10;99.90
16392;DHT22;8305;-33.882;151.134;2023-01-25T14:59:31;22.10;99.90
16392;DHT22;8305;-33.882;151.134;2023-01-25T15:02:13;22.10;99.90
16392;DHT22;8305;-33.882;151.134;2023-01-25T15:04:53;22.10;99.90
16392;DHT22;8305;-33.882;151.134;2023-01-25T15:07:44;22.10;99.90
16392;DHT22;8305;-33.882;151.134;2023-01-25T15:10:21;22.00;99.90
16392;DHT22;8305;-33.882;151.134;2023-01-25T15:13:00;22.00;99.90
16392;DHT22;8305;-33.882;151.134;2023-01-25T15:15:33;22.00;99.90
16392;DHT22;8305;-33.882;151.134;2023-01-25T15:18:04;21.90;99.90
16392;DHT22;8305;-33.882;151.134;2023-01-25T15:20:37;21.90;99.90
16392;DHT22;8305;-33.882;151.134;2023-01-25T15:23:24;21.90;99.90
16392;DHT22;8305;-33.882;151.134;2023-01-25T15:25:57;21.90;99.90
16392;DHT22;8305;-33.882;151.134;2023-01-25T15:28:29;21.90;99.90
16392;DHT22;8305;-33.882;151.134;2023-01-25T15:31:04;21.80;99.90
16392;DHT22;8305;-33.882;151.134;2023-01-25T15:33:35;21.80;99.90
16392;DHT22;8305;-33.882;151.134;2023-01-25T15:36:08;21.80;99.90
16392;DHT22;8305;-33.882;151.134;2023-01-25T15:38:41;21.80;99.90
16392;DHT22;8305;-33.882;151.134;2023-01-25T15:41:12;21.80;99.90
16392;DHT22;8305;-33.882;151.134;2023-01-25T15:43:46;21.80;99.90
16392;DHT22;8305;-33.882;151.134;2023-01-25T15:46:19;21.70;99.90
16392;DHT22;8305;-33.882;151.134;2023-01-25T15:48:51;21.70;99.90
16392;DHT22;8305;-33.882;151.134;2023-01-25T15:51:23;21.70;99.90
16392;DHT22;8305;-33.882;151.134;2023-01-25T15:53:56;21.70;99.90